sensor_id;sensor_type;location;lat;lon;timestamp;pressure;altitude;pressure_sealevel;temperature;humidity
55916;BME280;41826;53.246;-6.670;2023-04-26T00:02:09;100348.31;;;7.03;100.00
55916;BME280;41826;53.246;-6.670;2023-04-26T00:04:36;100337.50;;;7.08;100.00
55916;BME280;41826;53.246;-6.670;2023-04-26T00:07:01;100332.94;;;7.00;100.00
55916;BME280;41826;53.246;-6.670;2023-04-26T00:09:27;100327.16;;;6.97;100.00
55916;BME280;41826;53.246;-6.670;2023-04-26T00:11:52;100352.59;;;6.83;100.00
55916;BME280;41826;53.246;-6.670;2023-04-26T00:14:20;100378.94;;;6.80;100.00
55916;BME280;41826;53.246;-6.670;2023-04-26T00:16:45;100408.19;;;6.63;100.00
55916;BME280;41826;53.246;-6.670;2023-04-26T00:19:11;100450.34;;;6.79;100.00
55916;BME280;41826;53.246;-6.670;2023-04-26T00:21:37;100437.31;;;6.79;100.00
55916;BME280;41826;53.246;-6.670;2023-04-26T00:24:02;100458.50;;;6.86;100.00
55916;BME280;41826;53.246;-6.670;2023-04-26T00:26:29;100465.56;;;6.74;100.00
55916;BME280;41826;53.246;-6.670;2023-04-26T00:28:55;100463.88;;;6.73;100.00
55916;BME280;41826;53.246;-6.670;2023-04-26T00:31:20;100486.88;;;6.79;100.00
55916;BME280;41826;53.246;-6.670;2023-04-26T00:33:45;100487.25;;;6.75;100.00
55916;BME280;41826;53.246;-6.670;2023-04-26T00:36:12;100487.81;;;6.78;100.00
55916;BME280;41826;53.246;-6.670;2023-04-26T00:38:37;100477.19;;;6.70;100.00
55916;BME280;41826;53.246;-6.670;2023-04-26T00:41:03;100503.56;;;6.44;100.00
55916;BME280;41826;53.246;-6.670;2023-04-26T00:43:28;100528.69;;;6.45;100.00
55916;BME280;41826;53.246;-6.670;2023-04-26T00:45:54;100536.25;;;6.60;100.00
55916;BME280;41826;53.246;-6.670;2023-04-26T00:48:19;100544.44;;;6.55;100.00
55916;BME280;41826;53.246;-6.670;2023-04-26T00:50:45;100546.91;;;6.68;100.00
55916;BME280;41826;53.246;-6.670;2023-04-26T00:53:15;100538.47;;;6.76;100.00
55916;BME280;41826;53.246;-6.670;2023-04-26T00:55:41;100512.28;;;6.66;100.00
55916;BME280;41826;53.246;-6.670;2023-04-26T00:58:07;100495.31;;;6.71;100.00
55916;BME280;41826;53.246;-6.670;2023-04-26T01:00:33;100455.47;;;6.37;100.00
55916;BME280;41826;53.246;-6.670;2023-04-26T01:02:58;100537.50;;;6.11;100.00
55916;BME280;41826;53.246;-6.670;2023-04-26T01:05:24;100602.03;;;6.07;100.00
55916;BME280;41826;53.246;-6.670;2023-04-26T01:07:49;100687.69;;;6.00;100.00
55916;BME280;41826;53.246;-6.670;2023-04-26T01:10:17;100768.81;;;6.07;100.00
55916;BME280;41826;53.246;-6.670;2023-04-26T01:12:42;100822.56;;;6.21;100.00
55916;BME280;41826;53.246;-6.670;2023-04-26T01:15:09;100824.19;;;6.11;100.00
55916;BME280;41826;53.246;-6.670;2023-04-26T01:17:35;100847.06;;;6.18;100.00
55916;BME280;41826;53.246;-6.670;2023-04-26T01:20:03;100864.19;;;6.10;100.00
55916;BME280;41826;53.246;-6.670;2023-04-26T01:22:32;100888.09;;;6.03;100.00
55916;BME280;41826;53.246;-6.670;2023-04-26T01:24:58;100935.53;;;6.08;100.00
55916;BME280;41826;53.246;-6.670;2023-04-26T01:27:25;100937.41;;;6.06;100.00
55916;BME280;41826;53.246;-6.670;2023-04-26T01:29:50;100980.47;;;5.99;100.00
55916;BME280;41826;53.246;-6.670;2023-04-26T01:32:16;101041.34;;;5.98;100.00
55916;BME280;41826;53.246;-6.670;2023-04-26T01:34:41;101096.06;;;5.98;100.00
55916;BME280;41826;53.246;-6.670;2023-04-26T01:37:07;101149.84;;;5.99;100.00
55916;BME280;41826;53.246;-6.670;2023-04-26T01:39:33;101198.06;;;5.92;100.00
55916;BME280;41826;53.246;-6.670;2023-04-26T01:41:59;101260.44;;;5.95;100.00
55916;BME280;41826;53.246;-6.670;2023-04-26T01:44:24;101314.31;;;5.95;100.00
55916;BME280;41826;53.246;-6.670;2023-04-26T01:46:50;101374.22;;;6.09;100.00
55916;BME280;41826;53.246;-6.670;2023-04-26T01:49:15;101384.06;;;6.18;100.00
55916;BME280;41826;53.246;-6.670;2023-04-26T01:51:40;101410.66;;;5.96;100.00
55916;BME280;41826;53.246;-6.670;2023-04-26T01:54:06;101461.06;;;6.10;100.00
55916;BME280;41826;53.246;-6.670;2023-04-26T01:56:31;101476.91;;;6.21;100.00
55916;BME280;41826;53.246;-6.670;2023-04-26T01:58:57;101481.19;;;6.07;100.00
55916;BME280;41826;53.246;-6.670;2023-04-26T02:01:23;101487.28;;;6.35;100.00
55916;BME280;41826;53.246;-6.670;2023-04-26T02:03:48;101479.44;;;6.35;100.00
55916;BME280;41826;53.246;-6.670;2023-04-26T02:06:14;101487.19;;;6.37;100.00
55916;BME280;41826;53.246;-6.670;2023-04-26T02:08:40;101474.91;;;6.24;100.00
55916;BME280;41826;53.246;-6.670;2023-04-26T02:11:05;101465.09;;;6.42;100.00
55916;BME280;41826;53.246;-6.670;2023-04-26T02:13:31;101457.03;;;6.60;100.00
55916;BME280;41826;53.246;-6.670;2023-04-26T02:15:56;101438.16;;;6.56;100.00
55916;BME280;41826;53.246;-6.670;2023-04-26T02:18:22;101418.50;;;6.50;100.00
55916;BME280;41826;53.246;-6.670;2023-04-26T02:20:47;101428.78;;;6.39;100.00
55916;BME280;41826;53.246;-6.670;2023-04-26T02:23:13;101434.00;;;6.39;100.00
55916;BME280;41826;53.246;-6.670;2023-04-26T02:25:40;101444.34;;;6.41;100.00
55916;BME280;41826;53.246;-6.670;2023-04-26T02:28:06;101445.31;;;6.53;100.00
55916;BME280;41826;53.246;-6.670;2023-04-26T02:30:31;101432.59;;;6.61;100.00
55916;BME280;41826;53.246;-6.670;2023-04-26T02:32:57;101437.78;;;6.48;100.00
55916;BME280;41826;53.246;-6.670;2023-04-26T02:35:23;101456.78;;;6.50;100.00
55916;BME280;41826;53.246;-6.670;2023-04-26T02:37:49;101449.78;;;6.50;100.00
55916;BME280;41826;53.246;-6.670;2023-04-26T02:40:17;101458.59;;;6.35;100.00
55916;BME280;41826;53.246;-6.670;2023-04-26T02:42:42;101480.22;;;6.64;100.00
55916;BME280;41826;53.246;-6.670;2023-04-26T02:45:08;101496.03;;;6.48;100.00
55916;BME280;41826;53.246;-6.670;2023-04-26T02:47:35;101520.13;;;6.52;100.00
55916;BME280;41826;53.246;-6.670;2023-04-26T02:50:05;101515.66;;;6.54;100.00
55916;BME280;41826;53.246;-6.670;2023-04-26T02:52:32;101514.34;;;6.61;100.00
55916;BME280;41826;53.246;-6.670;2023-04-26T02:54:57;101517.19;;;6.71;100.00
55916;BME280;41826;53.246;-6.670;2023-04-26T02:57:23;101517.91;;;6.73;100.00
55916;BME280;41826;53.246;-6.670;2023-04-26T02:59:48;101517.16;;;6.44;100.00
55916;BME280;41826;53.246;-6.670;2023-04-26T03:02:13;101528.69;;;6.68;100.00
55916;BME280;41826;53.246;-6.670;2023-04-26T03:04:39;101519.50;;;6.48;100.00
55916;BME280;41826;53.246;-6.670;2023-04-26T03:07:06;101528.84;;;6.38;100.00
55916;BME280;41826;53.246;-6.670;2023-04-26T03:09:31;101529.94;;;6.34;100.00
55916;BME280;41826;53.246;-6.670;2023-04-26T03:11:58;101532.16;;;6.40;100.00
55916;BME280;41826;53.246;-6.670;2023-04-26T03:14:24;101536.94;;;6.34;100.00
55916;BME280;41826;53.246;-6.670;2023-04-26T03:16:50;101534.88;;;6.39;100.00
55916;BME280;41826;53.246;-6.670;2023-04-26T03:19:16;101526.84;;;6.42;100.00
55916;BME280;41826;53.246;-6.670;2023-04-26T03:21:41;101529.44;;;6.56;100.00
55916;BME280;41826;53.246;-6.670;2023-04-26T03:24:07;101523.44;;;6.27;100.00
55916;BME280;41826;53.246;-6.670;2023-04-26T03:26:32;101533.16;;;6.52;100.00
55916;BME280;41826;53.246;-6.670;2023-04-26T03:28:57;101527.94;;;6.66;100.00
55916;BME280;41826;53.246;-6.670;2023-04-26T03:31:23;101530.97;;;6.73;100.00
55916;BME280;41826;53.246;-6.670;2023-04-26T03:33:49;101515.16;;;6.62;100.00
55916;BME280;41826;53.246;-6.670;2023-04-26T03:36:14;101519.81;;;6.71;100.00
55916;BME280;41826;53.246;-6.670;2023-04-26T03:38:40;101504.44;;;6.66;100.00
55916;BME280;41826;53.246;-6.670;2023-04-26T03:41:07;101508.94;;;6.50;100.00
55916;BME280;41826;53.246;-6.670;2023-04-26T03:43:32;101511.97;;;6.44;100.00
55916;BME280;41826;53.246;-6.670;2023-04-26T03:45:57;101518.28;;;6.54;100.00
55916;BME280;41826;53.246;-6.670;2023-04-26T03:48:23;101504.69;;;6.76;100.00
55916;BME280;41826;53.246;-6.670;2023-04-26T03:50:48;101487.06;;;6.80;100.00
55916;BME280;41826;53.246;-6.670;2023-04-26T03:53:13;101453.66;;;6.85;100.00
55916;BME280;41826;53.246;-6.670;2023-04-26T03:55:39;101442.94;;;6.89;100.00
55916;BME280;41826;53.246;-6.670;2023-04-26T03:58:04;101444.72;;;6.62;100.00
55916;BME280;41826;53.246;-6.670;2023-04-26T04:00:43;101445.31;;;6.80;100.00
55916;BME280;41826;53.246;-6.670;2023-04-26T04:03:09;101446.81;;;6.57;100.00
55916;BME280;41826;53.246;-6.670;2023-04-26T04:05:34;101448.88;;;6.51;100.00
55916;BME280;41826;53.246;-6.670;2023-04-26T04:07:59;101443.41;;;6.69;100.00
55916;BME280;41826;53.246;-6.670;2023-04-26T04:10:26;101430.75;;;6.63;100.00
55916;BME280;41826;53.246;-6.670;2023-04-26T04:12:51;101437.41;;;6.54;100.00
55916;BME280;41826;53.246;-6.670;2023-04-26T04:15:18;101424.25;;;6.56;100.00
55916;BME280;41826;53.246;-6.670;2023-04-26T04:17:44;101423.66;;;6.38;100.00
55916;BME280;41826;53.246;-6.670;2023-04-26T04:20:10;101431.94;;;6.44;100.00
55916;BME280;41826;53.246;-6.670;2023-04-26T04:22:36;101427.56;;;6.45;100.00
55916;BME280;41826;53.246;-6.670;2023-04-26T04:25:05;101409.00;;;6.49;100.00
55916;BME280;41826;53.246;-6.670;2023-04-26T04:27:32;101414.59;;;6.31;100.00
55916;BME280;41826;53.246;-6.670;2023-04-26T04:29:57;101428.28;;;6.20;100.00
55916;BME280;41826;53.246;-6.670;2023-04-26T04:32:23;101449.34;;;6.17;100.00
55916;BME280;41826;53.246;-6.670;2023-04-26T04:34:49;101465.53;;;6.07;100.00
55916;BME280;41826;53.246;-6.670;2023-04-26T04:37:16;101480.25;;;6.08;100.00
55916;BME280;41826;53.246;-6.670;2023-04-26T04:39:42;101480.34;;;6.07;100.00
55916;BME280;41826;53.246;-6.670;2023-04-26T04:42:08;101478.75;;;6.19;100.00
55916;BME280;41826;53.246;-6.670;2023-04-26T04:44:34;101484.88;;;6.18;100.00
55916;BME280;41826;53.246;-6.670;2023-04-26T04:47:01;101491.41;;;6.25;100.00
55916;BME280;41826;53.246;-6.670;2023-04-26T04:49:26;101480.41;;;6.34;100.00
55916;BME280;41826;53.246;-6.670;2023-04-26T04:51:53;101469.25;;;6.18;100.00
55916;BME280;41826;53.246;-6.670;2023-04-26T04:54:18;101468.97;;;6.22;100.00
55916;BME280;41826;53.246;-6.670;2023-04-26T04:56:44;101462.38;;;6.17;100.00
55916;BME280;41826;53.246;-6.670;2023-04-26T04:59:10;101449.84;;;6.36;100.00
55916;BME280;41826;53.246;-6.670;2023-04-26T05:01:36;101434.06;;;6.52;100.00
55916;BME280;41826;53.246;-6.670;2023-04-26T05:04:02;101384.91;;;6.19;100.00
55916;BME280;41826;53.246;-6.670;2023-04-26T05:06:28;101398.13;;;6.16;100.00
55916;BME280;41826;53.246;-6.670;2023-04-26T05:08:54;101400.34;;;6.49;100.00
55916;BME280;41826;53.246;-6.670;2023-04-26T05:11:20;101339.34;;;6.64;100.00
55916;BME280;41826;53.246;-6.670;2023-04-26T05:13:47;101319.28;;;6.52;100.00
55916;BME280;41826;53.246;-6.670;2023-04-26T05:16:12;101347.50;;;6.33;100.00
55916;BME280;41826;53.246;-6.670;2023-04-26T05:18:37;101387.47;;;6.33;100.00
55916;BME280;41826;53.246;-6.670;2023-04-26T05:21:03;101407.97;;;6.25;100.00
55916;BME280;41826;53.246;-6.670;2023-04-26T05:23:28;101444.13;;;6.17;100.00
55916;BME280;41826;53.246;-6.670;2023-04-26T05:25:55;101459.06;;;6.42;100.00
55916;BME280;41826;53.246;-6.670;2023-04-26T05:28:20;101459.69;;;6.18;100.00
55916;BME280;41826;53.246;-6.670;2023-04-26T05:30:46;101484.94;;;6.03;100.00
55916;BME280;41826;53.246;-6.670;2023-04-26T05:33:11;101501.47;;;5.88;100.00
55916;BME280;41826;53.246;-6.670;2023-04-26T05:35:36;101507.59;;;5.73;100.00
55916;BME280;41826;53.246;-6.670;2023-04-26T05:38:02;101515.88;;;5.65;100.00
55916;BME280;41826;53.246;-6.670;2023-04-26T05:40:28;101510.84;;;5.62;100.00
55916;BME280;41826;53.246;-6.670;2023-04-26T05:42:53;101516.78;;;5.64;100.00
55916;BME280;41826;53.246;-6.670;2023-04-26T05:45:20;101508.97;;;5.50;100.00
55916;BME280;41826;53.246;-6.670;2023-04-26T05:47:46;101507.75;;;5.70;100.00
55916;BME280;41826;53.246;-6.670;2023-04-26T05:50:13;101505.94;;;5.86;100.00
55916;BME280;41826;53.246;-6.670;2023-04-26T05:52:38;101505.22;;;5.98;100.00
55916;BME280;41826;53.246;-6.670;2023-04-26T05:55:04;101512.38;;;6.09;100.00
55916;BME280;41826;53.246;-6.670;2023-04-26T05:57:31;101505.66;;;6.05;100.00
55916;BME280;41826;53.246;-6.670;2023-04-26T05:59:57;101501.47;;;6.02;100.00
55916;BME280;41826;53.246;-6.670;2023-04-26T06:02:22;101494.47;;;6.17;100.00
55916;BME280;41826;53.246;-6.670;2023-04-26T06:04:47;101486.56;;;6.19;100.00
55916;BME280;41826;53.246;-6.670;2023-04-26T06:07:13;101489.22;;;6.73;100.00
55916;BME280;41826;53.246;-6.670;2023-04-26T06:09:39;101467.59;;;7.11;100.00
55916;BME280;41826;53.246;-6.670;2023-04-26T06:12:04;101407.13;;;7.55;100.00
55916;BME280;41826;53.246;-6.670;2023-04-26T06:14:30;101290.94;;;7.85;100.00
55916;BME280;41826;53.246;-6.670;2023-04-26T06:16:56;101167.75;;;8.12;100.00
55916;BME280;41826;53.246;-6.670;2023-04-26T06:19:21;101048.06;;;8.27;100.00
55916;BME280;41826;53.246;-6.670;2023-04-26T06:21:47;100982.69;;;8.50;100.00
55916;BME280;41826;53.246;-6.670;2023-04-26T06:24:13;100937.22;;;9.04;100.00
55916;BME280;41826;53.246;-6.670;2023-04-26T06:26:39;100784.03;;;9.60;100.00
55916;BME280;41826;53.246;-6.670;2023-04-26T06:29:04;100577.34;;;9.74;100.00
55916;BME280;41826;53.246;-6.670;2023-04-26T06:31:30;100095.25;;;9.55;100.00
55916;BME280;41826;53.246;-6.670;2023-04-26T06:33:55;99918.91;;;9.10;100.00
55916;BME280;41826;53.246;-6.670;2023-04-26T06:36:20;99858.84;;;8.83;100.00
55916;BME280;41826;53.246;-6.670;2023-04-26T06:38:46;99919.03;;;8.83;100.00
55916;BME280;41826;53.246;-6.670;2023-04-26T06:41:11;99962.34;;;8.59;100.00
55916;BME280;41826;53.246;-6.670;2023-04-26T06:43:37;100018.31;;;8.39;100.00
55916;BME280;41826;53.246;-6.670;2023-04-26T06:46:02;100085.72;;;8.55;100.00
55916;BME280;41826;53.246;-6.670;2023-04-26T06:48:28;100123.69;;;8.68;100.00
55916;BME280;41826;53.246;-6.670;2023-04-26T06:50:53;100125.09;;;8.53;100.00
55916;BME280;41826;53.246;-6.670;2023-04-26T06:53:18;100179.97;;;9.00;100.00
55916;BME280;41826;53.246;-6.670;2023-04-26T06:55:44;100197.53;;;9.18;100.00
55916;BME280;41826;53.246;-6.670;2023-04-26T06:58:10;100181.31;;;9.14;100.00
55916;BME280;41826;53.246;-6.670;2023-04-26T07:00:35;100233.13;;;9.10;100.00
55916;BME280;41826;53.246;-6.670;2023-04-26T07:03:01;100192.47;;;9.34;100.00
55916;BME280;41826;53.246;-6.670;2023-04-26T07:05:26;100122.34;;;9.46;100.00
55916;BME280;41826;53.246;-6.670;2023-04-26T07:07:51;100088.88;;;9.58;100.00
55916;BME280;41826;53.246;-6.670;2023-04-26T07:10:17;100012.13;;;9.65;100.00
55916;BME280;41826;53.246;-6.670;2023-04-26T07:12:42;99994.50;;;9.31;100.00
55916;BME280;41826;53.246;-6.670;2023-04-26T07:15:08;100037.69;;;9.45;100.00
55916;BME280;41826;53.246;-6.670;2023-04-26T07:17:34;100051.09;;;9.42;100.00
55916;BME280;41826;53.246;-6.670;2023-04-26T07:19:59;99977.66;;;9.34;100.00
55916;BME280;41826;53.246;-6.670;2023-04-26T07:22:25;99934.41;;;9.56;100.00
55916;BME280;41826;53.246;-6.670;2023-04-26T07:24:50;99899.50;;;9.47;100.00
55916;BME280;41826;53.246;-6.670;2023-04-26T07:27:15;99909.88;;;9.57;100.00
55916;BME280;41826;53.246;-6.670;2023-04-26T07:29:41;99914.38;;;9.73;100.00
55916;BME280;41826;53.246;-6.670;2023-04-26T07:32:06;99888.13;;;9.65;100.00
55916;BME280;41826;53.246;-6.670;2023-04-26T07:34:32;99831.50;;;9.80;100.00
55916;BME280;41826;53.246;-6.670;2023-04-26T07:36:58;99771.03;;;9.73;100.00
55916;BME280;41826;53.246;-6.670;2023-04-26T07:39:24;99740.59;;;9.97;100.00
55916;BME280;41826;53.246;-6.670;2023-04-26T07:41:50;99697.34;;;10.01;100.00
55916;BME280;41826;53.246;-6.670;2023-04-26T07:44:15;99674.22;;;9.64;100.00
55916;BME280;41826;53.246;-6.670;2023-04-26T07:46:40;99703.41;;;9.85;100.00
55916;BME280;41826;53.246;-6.670;2023-04-26T07:49:06;99642.94;;;9.87;100.00
55916;BME280;41826;53.246;-6.670;2023-04-26T07:51:31;99567.72;;;9.87;100.00
55916;BME280;41826;53.246;-6.670;2023-04-26T07:53:57;99551.34;;;9.93;100.00
55916;BME280;41826;53.246;-6.670;2023-04-26T07:56:23;99521.59;;;9.70;100.00
55916;BME280;41826;53.246;-6.670;2023-04-26T07:58:48;99533.84;;;9.86;100.00
55916;BME280;41826;53.246;-6.670;2023-04-26T08:01:14;99509.06;;;9.96;100.00
55916;BME280;41826;53.246;-6.670;2023-04-26T08:03:40;99489.41;;;9.92;100.00
55916;BME280;41826;53.246;-6.670;2023-04-26T08:06:05;99511.53;;;9.90;100.00
55916;BME280;41826;53.246;-6.670;2023-04-26T08:08:32;99501.00;;;10.06;100.00
55916;BME280;41826;53.246;-6.670;2023-04-26T08:10:59;99474.31;;;9.94;100.00
55916;BME280;41826;53.246;-6.670;2023-04-26T08:13:24;99495.06;;;10.20;100.00
55916;BME280;41826;53.246;-6.670;2023-04-26T08:15:50;99501.09;;;10.21;100.00
55916;BME280;41826;53.246;-6.670;2023-04-26T08:18:15;99501.34;;;10.43;100.00
55916;BME280;41826;53.246;-6.670;2023-04-26T08:20:41;99514.13;;;10.46;100.00
55916;BME280;41826;53.246;-6.670;2023-04-26T08:23:06;99489.59;;;10.30;100.00
55916;BME280;41826;53.246;-6.670;2023-04-26T08:25:32;99488.06;;;10.44;100.00
55916;BME280;41826;53.246;-6.670;2023-04-26T08:28:00;99468.28;;;10.65;100.00
55916;BME280;41826;53.246;-6.670;2023-04-26T08:30:26;99463.31;;;10.93;100.00
55916;BME280;41826;53.246;-6.670;2023-04-26T08:32:52;99425.09;;;10.90;100.00
55916;BME280;41826;53.246;-6.670;2023-04-26T08:35:17;99419.97;;;10.97;100.00
55916;BME280;41826;53.246;-6.670;2023-04-26T08:37:42;99426.13;;;10.66;100.00
55916;BME280;41826;53.246;-6.670;2023-04-26T08:40:08;99426.34;;;10.56;100.00
55916;BME280;41826;53.246;-6.670;2023-04-26T08:42:40;99422.91;;;10.79;100.00
55916;BME280;41826;53.246;-6.670;2023-04-26T08:45:25;99407.16;;;10.94;100.00
55916;BME280;41826;53.246;-6.670;2023-04-26T08:48:06;99411.13;;;10.52;100.00
55916;BME280;41826;53.246;-6.670;2023-04-26T08:50:37;99411.56;;;10.78;100.00
55916;BME280;41826;53.246;-6.670;2023-04-26T08:53:03;99403.19;;;10.98;100.00
55916;BME280;41826;53.246;-6.670;2023-04-26T08:55:30;99391.19;;;11.18;100.00
55916;BME280;41826;53.246;-6.670;2023-04-26T08:57:58;99382.94;;;11.21;100.00
55916;BME280;41826;53.246;-6.670;2023-04-26T09:00:25;99389.47;;;11.25;100.00
55916;BME280;41826;53.246;-6.670;2023-04-26T09:02:51;99399.41;;;11.00;100.00
55916;BME280;41826;53.246;-6.670;2023-04-26T09:05:18;99403.41;;;11.11;100.00
55916;BME280;41826;53.246;-6.670;2023-04-26T09:07:49;99394.56;;;11.27;100.00
55916;BME280;41826;53.246;-6.670;2023-04-26T09:10:19;99393.56;;;11.43;100.00
55916;BME280;41826;53.246;-6.670;2023-04-26T09:12:51;99395.56;;;11.56;100.00
55916;BME280;41826;53.246;-6.670;2023-04-26T09:15:17;99407.59;;;11.95;100.00
55916;BME280;41826;53.246;-6.670;2023-04-26T09:17:44;99420.69;;;12.24;100.00
55916;BME280;41826;53.246;-6.670;2023-04-26T09:20:30;99431.31;;;12.31;100.00
55916;BME280;41826;53.246;-6.670;2023-04-26T09:23:06;99453.09;;;12.25;100.00
55916;BME280;41826;53.246;-6.670;2023-04-26T09:25:32;99475.81;;;12.47;100.00
55916;BME280;41826;53.246;-6.670;2023-04-26T09:28:01;99525.03;;;12.02;100.00
55916;BME280;41826;53.246;-6.670;2023-04-26T09:30:37;99502.06;;;12.77;100.00
55916;BME280;41826;53.246;-6.670;2023-04-26T09:33:03;99538.84;;;12.04;100.00
55916;BME280;41826;53.246;-6.670;2023-04-26T09:35:37;99509.19;;;12.83;100.00
55916;BME280;41826;53.246;-6.670;2023-04-26T09:40:35;99515.00;;;13.15;100.00
55916;BME280;41826;53.246;-6.670;2023-04-26T09:43:09;99588.91;;;13.28;100.00
55916;BME280;41826;53.246;-6.670;2023-04-26T09:45:52;99563.28;;;13.00;100.00
55916;BME280;41826;53.246;-6.670;2023-04-26T09:48:22;99575.50;;;12.87;100.00
55916;BME280;41826;53.246;-6.670;2023-04-26T09:50:49;99643.38;;;12.55;100.00
55916;BME280;41826;53.246;-6.670;2023-04-26T09:53:32;99702.91;;;12.71;100.00
55916;BME280;41826;53.246;-6.670;2023-04-26T09:56:20;99798.81;;;12.62;100.00
55916;BME280;41826;53.246;-6.670;2023-04-26T10:01:13;99721.91;;;12.66;100.00
55916;BME280;41826;53.246;-6.670;2023-04-26T10:03:39;99700.75;;;12.74;100.00
55916;BME280;41826;53.246;-6.670;2023-04-26T10:06:06;99687.03;;;12.64;100.00
55916;BME280;41826;53.246;-6.670;2023-04-26T10:08:32;99611.44;;;13.31;100.00
55916;BME280;41826;53.246;-6.670;2023-04-26T10:10:59;99643.63;;;12.60;100.00
55916;BME280;41826;53.246;-6.670;2023-04-26T10:13:26;99682.31;;;13.40;100.00
55916;BME280;41826;53.246;-6.670;2023-04-26T10:15:52;99821.06;;;12.59;100.00
55916;BME280;41826;53.246;-6.670;2023-04-26T10:18:18;99841.16;;;13.28;100.00
55916;BME280;41826;53.246;-6.670;2023-04-26T10:20:45;99845.94;;;13.54;100.00
55916;BME280;41826;53.246;-6.670;2023-04-26T10:23:19;99922.22;;;13.40;100.00
55916;BME280;41826;53.246;-6.670;2023-04-26T10:25:46;100033.38;;;12.52;100.00
55916;BME280;41826;53.246;-6.670;2023-04-26T10:28:12;99991.25;;;12.98;100.00
55916;BME280;41826;53.246;-6.670;2023-04-26T10:30:57;100021.53;;;13.25;100.00
55916;BME280;41826;53.246;-6.670;2023-04-26T10:33:25;100021.66;;;13.84;100.00
55916;BME280;41826;53.246;-6.670;2023-04-26T10:36:05;100173.13;;;12.82;100.00
55916;BME280;41826;53.246;-6.670;2023-04-26T10:38:32;100061.38;;;12.45;100.00
55916;BME280;41826;53.246;-6.670;2023-04-26T10:41:29;100098.28;;;12.68;100.00
55916;BME280;41826;53.246;-6.670;2023-04-26T10:43:56;100112.38;;;12.83;100.00
55916;BME280;41826;53.246;-6.670;2023-04-26T10:46:39;100122.13;;;13.06;100.00
55916;BME280;41826;53.246;-6.670;2023-04-26T10:49:15;100137.38;;;13.18;100.00
55916;BME280;41826;53.246;-6.670;2023-04-26T10:52:07;100176.09;;;12.87;100.00
55916;BME280;41826;53.246;-6.670;2023-04-26T10:54:47;100163.53;;;13.28;100.00
55916;BME280;41826;53.246;-6.670;2023-04-26T10:57:13;100121.56;;;13.50;100.00
55916;BME280;41826;53.246;-6.670;2023-04-26T10:59:39;100170.06;;;12.70;100.00
55916;BME280;41826;53.246;-6.670;2023-04-26T11:02:09;100169.16;;;12.94;100.00
55916;BME280;41826;53.246;-6.670;2023-04-26T11:04:56;100186.53;;;12.64;100.00
55916;BME280;41826;53.246;-6.670;2023-04-26T11:07:36;100167.22;;;12.24;100.00
55916;BME280;41826;53.246;-6.670;2023-04-26T11:10:02;100116.19;;;12.41;100.00
55916;BME280;41826;53.246;-6.670;2023-04-26T11:12:28;100135.91;;;12.85;100.00
55916;BME280;41826;53.246;-6.670;2023-04-26T11:14:53;100157.56;;;13.03;100.00
55916;BME280;41826;53.246;-6.670;2023-04-26T11:17:21;100217.09;;;12.73;100.00
55916;BME280;41826;53.246;-6.670;2023-04-26T11:19:46;100264.59;;;12.48;100.00
55916;BME280;41826;53.246;-6.670;2023-04-26T11:22:12;100245.28;;;12.64;100.00
55916;BME280;41826;53.246;-6.670;2023-04-26T11:24:37;100249.72;;;12.55;100.00
55916;BME280;41826;53.246;-6.670;2023-04-26T11:27:10;100280.66;;;12.70;100.00
55916;BME280;41826;53.246;-6.670;2023-04-26T11:29:36;100293.63;;;12.88;100.00
55916;BME280;41826;53.246;-6.670;2023-04-26T11:32:03;100333.84;;;12.57;100.00
55916;BME280;41826;53.246;-6.670;2023-04-26T11:34:36;100344.22;;;12.58;100.00
55916;BME280;41826;53.246;-6.670;2023-04-26T11:37:04;100363.63;;;12.49;100.00
55916;BME280;41826;53.246;-6.670;2023-04-26T11:39:36;100371.38;;;12.67;100.00
55916;BME280;41826;53.246;-6.670;2023-04-26T11:42:05;100387.84;;;12.61;100.00
55916;BME280;41826;53.246;-6.670;2023-04-26T11:44:34;100391.63;;;12.67;100.00
55916;BME280;41826;53.246;-6.670;2023-04-26T11:47:03;100396.38;;;12.79;100.00
55916;BME280;41826;53.246;-6.670;2023-04-26T11:49:30;100376.38;;;13.42;100.00
55916;BME280;41826;53.246;-6.670;2023-04-26T11:51:57;100409.69;;;13.35;100.00
55916;BME280;41826;53.246;-6.670;2023-04-26T11:54:31;100433.09;;;13.06;100.00
55916;BME280;41826;53.246;-6.670;2023-04-26T11:56:57;100443.97;;;12.94;100.00
55916;BME280;41826;53.246;-6.670;2023-04-26T11:59:31;100468.66;;;13.42;100.00
55916;BME280;41826;53.246;-6.670;2023-04-26T12:01:57;100488.25;;;13.48;100.00
55916;BME280;41826;53.246;-6.670;2023-04-26T12:04:26;100507.03;;;12.96;100.00
55916;BME280;41826;53.246;-6.670;2023-04-26T12:06:53;100489.75;;;13.01;100.00
55916;BME280;41826;53.246;-6.670;2023-04-26T12:09:26;100519.91;;;12.99;100.00
55916;BME280;41826;53.246;-6.670;2023-04-26T12:12:03;100520.38;;;13.11;100.00
55916;BME280;41826;53.246;-6.670;2023-04-26T12:14:32;100522.72;;;13.38;100.00
55916;BME280;41826;53.246;-6.670;2023-04-26T12:16:59;100504.91;;;13.40;100.00
55916;BME280;41826;53.246;-6.670;2023-04-26T12:19:31;100517.44;;;13.47;100.00
55916;BME280;41826;53.246;-6.670;2023-04-26T12:21:57;100523.19;;;13.26;100.00
55916;BME280;41826;53.246;-6.670;2023-04-26T12:24:27;100529.63;;;13.07;100.00
55916;BME280;41826;53.246;-6.670;2023-04-26T12:27:01;100533.09;;;13.40;100.00
55916;BME280;41826;53.246;-6.670;2023-04-26T12:29:29;100537.38;;;13.41;100.00
55916;BME280;41826;53.246;-6.670;2023-04-26T12:31:55;100513.97;;;13.46;100.00
55916;BME280;41826;53.246;-6.670;2023-04-26T12:34:21;100529.16;;;13.28;100.00
55916;BME280;41826;53.246;-6.670;2023-04-26T12:36:47;100510.13;;;12.67;100.00
55916;BME280;41826;53.246;-6.670;2023-04-26T12:39:13;100497.69;;;13.34;100.00
55916;BME280;41826;53.246;-6.670;2023-04-26T12:41:40;100523.03;;;13.43;100.00
55916;BME280;41826;53.246;-6.670;2023-04-26T12:44:07;100505.09;;;13.31;100.00